Tromso/Langnes

Airport
ICAO code: 
ENTC
Summary
ICAO Region: 
EUR
Territory: 
Location: 
Tromso, Norway,
Elevation: 
31 ft
Coordinates: 
Aerial View: 
69° 40' 59.866" N, 18° 55' 8.038" E
Metar
Observation
ENTC 020520Z 06010KT 9999 FEW068 M00/M09 Q1004 RMK WIND 2600FT 07015KT
Station
Tromso / Langnes
Date/Time
2021-12-02 05:20:00
Wind direction
60°
Wind speed
10 kts
Lowest cloud amount
few clouds
Temperature
-0°C
Dew point
-9°C
Humidity
50%
QNH
1004 hPa
Weather condition
n/a

Description

International airport serving city of Tromso in northern Norway.

Climatology

Borderline Subpolar Oceanic/Continental subarctic climate (because of winter temperatures) (Köppen climate classification Cfc/Dfc) - uniform precipitation distribution, temperatures are moderated by the proximity of the ocean and warm currents - cool summers and comparatively mild winters.

Tromso has a reputation for heavy snowfalls in winter.

Runways

Designator Length Width Surface Rops
1/19 2392 45 ASP Yes/Yes
Airport map: 
Aerial View: 

SKYbrary Partners:

Safety knowledge contributed by: